Time;durP1;ratioP1;P1;durP2;ratioP2;P2;SDS_P1;SDS_P2;PMS_P1;PMS_P2;Temp;Humidity;BMP_temperature;BMP_pressure;BME280_temperature;BME280_humidity;BME280_pressure;Samples;Min_cycle;Max_cycle;Signal;HPM_P1;HPM_P2
2023/07/30 00:00:02;;;;;;;5.38;3.50;;;;;;;17.02;100.00;96391.97;5020682;28;20129;-71
2023/07/30 00:02:27;;;;;;;7.80;3.42;;;;;;;16.92;100.00;96399.97;5019873;28;20037;-70
2023/07/30 00:04:54;;;;;;;9.80;3.33;;;;;;;17.04;100.00;96395.84;5022993;28;20049;-70
2023/07/30 00:07:19;;;;;;;6.32;2.78;;;;;;;17.07;100.00;96397.00;5018405;28;20052;-70
2023/07/30 00:09:44;;;;;;;9.05;3.50;;;;;;;17.22;100.00;96394.84;5023474;28;20440;-70
2023/07/30 00:12:10;;;;;;;5.28;2.65;;;;;;;17.27;100.00;96406.22;5016931;28;20041;-70
2023/07/30 00:14:35;;;;;;;7.25;3.42;;;;;;;17.36;100.00;96402.91;5022606;28;20049;-70
2023/07/30 00:17:02;;;;;;;5.85;3.28;;;;;;;17.47;100.00;96395.22;5023257;28;20052;-70
2023/07/30 00:19:27;;;;;;;5.93;3.13;;;;;;;17.35;100.00;96404.09;5018196;28;20041;-69
2023/07/30 00:21:53;;;;;;;6.93;3.15;;;;;;;17.28;100.00;96401.44;5011748;28;20034;-69
2023/07/30 00:24:18;;;;;;;5.65;3.15;;;;;;;17.22;100.00;96400.38;4995782;28;20041;-71
2023/07/30 00:26:43;;;;;;;5.15;3.05;;;;;;;17.39;100.00;96413.13;5001664;28;20050;-69
2023/07/30 00:29:09;;;;;;;4.25;2.85;;;;;;;17.33;100.00;96417.59;4984153;28;20487;-69
2023/07/30 00:31:34;;;;;;;6.03;3.47;;;;;;;17.50;100.00;96419.31;4983136;28;20129;-70
2023/07/30 00:33:59;;;;;;;5.20;2.75;;;;;;;17.64;100.00;96428.59;4982237;28;20046;-70
2023/07/30 00:36:25;;;;;;;4.95;2.70;;;;;;;17.66;100.00;96426.19;4978793;28;20042;-71
2023/07/30 00:38:50;;;;;;;3.90;2.53;;;;;;;17.76;100.00;96434.31;4983691;28;20043;-69
2023/07/30 00:41:15;;;;;;;6.85;2.80;;;;;;;17.75;100.00;96435.53;4992150;28;20038;-71
2023/07/30 00:43:41;;;;;;;4.68;2.40;;;;;;;17.77;100.00;96429.56;5000464;28;20537;-70
2023/07/30 00:46:06;;;;;;;3.58;2.60;;;;;;;17.82;100.00;96442.16;4999339;28;20046;-71
2023/07/30 00:48:32;;;;;;;4.10;2.55;;;;;;;17.86;100.00;96438.16;5002230;28;20069;-70
2023/07/30 00:50:58;;;;;;;3.70;2.60;;;;;;;17.75;100.00;96438.31;5000435;28;20633;-69
2023/07/30 00:53:26;;;;;;;3.35;2.30;;;;;;;17.70;100.00;96429.66;4998617;28;20556;-70
2023/07/30 00:55:52;;;;;;;3.35;2.10;;;;;;;17.63;100.00;96438.09;5003165;28;20042;-70
2023/07/30 00:58:18;;;;;;;5.15;2.65;;;;;;;17.52;100.00;96438.25;4997201;28;20145;-70
2023/07/30 01:00:44;;;;;;;3.60;2.78;;;;;;;17.38;100.00;96437.28;5003919;28;20052;-70
2023/07/30 01:03:10;;;;;;;6.88;2.75;;;;;;;17.42;100.00;96437.22;4996643;28;20104;-69
2023/07/30 01:05:36;;;;;;;10.52;3.10;;;;;;;17.31;100.00;96437.38;5000477;28;20543;-70
2023/07/30 01:08:01;;;;;;;5.82;2.70;;;;;;;17.26;100.00;96442.59;5000495;28;20518;-70
2023/07/30 01:10:29;;;;;;;3.88;2.47;;;;;;;17.32;100.00;96435.38;4997159;28;20399;-69
2023/07/30 01:12:55;;;;;;;4.22;2.50;;;;;;;17.34;100.00;96442.09;5000912;28;20108;-70
2023/07/30 01:15:20;;;;;;;5.38;2.67;;;;;;;17.35;100.00;96435.34;4997203;28;20034;-69
2023/07/30 01:17:46;;;;;;;8.32;2.70;;;;;;;17.25;100.00;96436.28;5000278;28;20506;-70
2023/07/30 01:20:12;;;;;;;8.35;3.05;;;;;;;17.22;100.00;96426.03;4994114;28;20095;-70
2023/07/30 01:22:37;;;;;;;5.03;3.10;;;;;;;17.11;100.00;96426.19;5000185;28;20038;-69
2023/07/30 01:25:03;;;;;;;4.22;3.00;;;;;;;17.11;100.00;96430.97;4999243;28;20038;-68
2023/07/30 01:27:31;;;;;;;5.47;3.28;;;;;;;17.11;100.00;96426.19;4999161;28;20165;-70
2023/07/30 01:30:12;;;;;;;6.28;3.83;;;;;;;17.02;100.00;96436.22;5002834;28;20056;-70
2023/07/30 01:32:38;;;;;;;6.47;2.92;;;;;;;17.14;100.00;96433.66;5001745;28;20056;-68
2023/07/30 01:35:07;;;;;;;3.70;2.65;;;;;;;17.15;100.00;96437.22;4998186;28;20038;-68
2023/07/30 01:37:33;;;;;;;4.18;2.88;;;;;;;17.07;100.00;96436.53;5002309;28;20490;-71
2023/07/30 01:39:59;;;;;;;4.68;2.88;;;;;;;17.07;100.00;96438.50;5000354;28;20162;-71
2023/07/30 01:42:29;;;;;;;6.57;2.88;;;;;;;16.95;100.00;96437.88;4995071;28;20139;-69
2023/07/30 01:44:55;;;;;;;5.53;2.88;;;;;;;16.86;100.00;96434.81;5000872;28;20038;-69
2023/07/30 01:47:20;;;;;;;4.65;3.10;;;;;;;16.78;100.00;96436.06;4995927;28;20059;-70
2023/07/30 01:49:45;;;;;;;4.10;2.75;;;;;;;16.76;100.00;96439.28;5001305;28;20038;-71
2023/07/30 01:52:11;;;;;;;7.10;3.05;;;;;;;16.98;100.00;96431.50;4996833;28;20042;-69
2023/07/30 01:54:36;;;;;;;4.82;2.92;;;;;;;17.07;100.00;96424.66;5001427;28;20048;-71
2023/07/30 01:57:02;;;;;;;4.78;2.63;;;;;;;17.22;100.00;96416.97;5002642;28;20070;-71
2023/07/30 01:59:27;;;;;;;4.90;2.63;;;;;;;17.26;100.00;96414.94;4998558;28;20164;-71
2023/07/30 02:01:53;;;;;;;4.88;2.95;;;;;;;17.18;100.00;96415.03;5004138;28;20493;-71
2023/07/30 02:04:18;;;;;;;3.83;2.88;;;;;;;17.10;100.00;96415.53;5014558;28;20037;-70
2023/07/30 02:06:43;;;;;;;6.45;3.30;;;;;;;17.13;100.00;96409.19;5018242;28;20048;-69
2023/07/30 02:09:09;;;;;;;6.45;3.08;;;;;;;17.15;100.00;96406.78;4999454;28;20049;-69
2023/07/30 02:11:34;;;;;;;5.30;2.83;;;;;;;17.18;100.00;96403.97;5000141;28;20073;-69
2023/07/30 02:13:59;;;;;;;4.28;2.88;;;;;;;17.23;100.00;96408.22;5000152;28;20442;-69
2023/07/30 02:16:25;;;;;;;6.70;2.85;;;;;;;17.22;100.00;96403.91;4996002;28;20042;-69
2023/07/30 02:18:50;;;;;;;6.05;3.28;;;;;;;17.26;100.00;96407.41;5001635;28;20037;-69
2023/07/30 02:21:15;;;;;;;6.28;3.10;;;;;;;17.23;100.00;96401.91;4995418;28;20030;-69
2023/07/30 02:23:41;;;;;;;6.25;2.67;;;;;;;17.23;100.00;96399.16;5000467;28;20060;-69
2023/07/30 02:26:06;;;;;;;6.60;3.00;;;;;;;17.20;100.00;96398.78;4995635;28;20554;-69
2023/07/30 02:28:31;;;;;;;5.13;2.85;;;;;;;17.12;100.00;96404.84;4999976;28;20461;-69
2023/07/30 02:30:57;;;;;;;9.23;3.42;;;;;;;17.07;100.00;96405.28;4992338;28;20124;-70
2023/07/30 02:33:22;;;;;;;6.03;2.80;;;;;;;16.98;100.00;96405.84;4976196;28;20283;-71
2023/07/30 02:35:47;;;;;;;5.40;3.00;;;;;;;16.91;100.00;96400.41;4991341;28;20137;-71
2023/07/30 02:38:13;;;;;;;5.40;3.42;;;;;;;16.92;100.00;96394.44;4996899;28;20048;-70
2023/07/30 02:40:38;;;;;;;4.80;3.15;;;;;;;16.97;100.00;96407.78;5002035;28;20050;-70
2023/07/30 02:43:04;;;;;;;4.78;2.65;;;;;;;16.93;100.00;96398.00;4995871;28;20042;-69
2023/07/30 02:45:30;;;;;;;5.03;3.03;;;;;;;16.89;100.00;96402.78;5009890;28;20054;-70
2023/07/30 02:47:55;;;;;;;4.15;3.00;;;;;;;16.99;100.00;96399.09;4999152;28;20406;-72
2023/07/30 02:50:21;;;;;;;3.42;2.72;;;;;;;16.95;100.00;96407.44;4995818;28;20060;-71
2023/07/30 02:52:46;;;;;;;5.53;2.90;;;;;;;16.80;100.00;96406.03;5005533;28;20499;-71
2023/07/30 02:55:12;;;;;;;7.90;3.13;;;;;;;16.66;100.00;96417.28;4996874;28;20042;-70
2023/07/30 02:57:37;;;;;;;7.28;3.50;;;;;;;16.47;100.00;96413.16;5003098;28;20038;-71
2023/07/30 03:00:04;;;;;;;4.78;3.08;;;;;;;16.32;100.00;96418.84;5001181;28;20095;-68
2023/07/30 03:02:30;;;;;;;5.35;3.03;;;;;;;16.19;100.00;96420.56;4999702;28;20132;-71
2023/07/30 03:04:55;;;;;;;5.50;3.42;;;;;;;16.22;100.00;96414.19;5001138;28;20129;-71
2023/07/30 03:07:21;;;;;;;6.05;4.00;;;;;;;16.13;100.00;96419.44;4996838;28;20056;-71
2023/07/30 03:09:46;;;;;;;9.07;3.70;;;;;;;16.22;100.00;96415.00;5000731;28;20129;-71
2023/07/30 03:12:12;;;;;;;4.95;3.42;;;;;;;16.26;100.00;96417.72;4994573;28;20045;-70
2023/07/30 03:14:37;;;;;;;8.23;3.50;;;;;;;16.24;100.00;96426.41;5000710;28;20049;-72
2023/07/30 03:17:04;;;;;;;7.07;3.78;;;;;;;16.08;100.00;96419.88;4997596;28;20395;-68
2023/07/30 03:19:30;;;;;;;7.30;3.80;;;;;;;15.90;100.00;96431.06;5000585;28;20072;-68
2023/07/30 03:21:55;;;;;;;5.55;3.50;;;;;;;15.82;100.00;96428.38;5001271;28;20133;-69
2023/07/30 03:24:21;;;;;;;7.28;3.88;;;;;;;15.71;100.00;96429.66;4999888;28;20370;-69
2023/07/30 03:26:46;;;;;;;8.85;4.13;;;;;;;15.58;100.00;96429.34;5004785;28;20042;-71
2023/07/30 03:29:11;;;;;;;8.23;4.65;;;;;;;15.51;100.00;96427.44;4999249;28;20049;-70
2023/07/30 03:31:37;;;;;;;5.32;4.25;;;;;;;15.52;100.00;96423.50;5004698;28;20042;-70
2023/07/30 03:34:02;;;;;;;6.13;4.50;;;;;;;15.51;100.00;96427.44;5008795;28;20044;-68
2023/07/30 03:36:27;;;;;;;8.00;4.32;;;;;;;15.50;100.00;96423.09;5004822;28;20037;-71
2023/07/30 03:38:53;;;;;;;6.53;3.78;;;;;;;15.70;100.00;96428.88;5008953;28;20069;-70
2023/07/30 03:41:18;;;;;;;5.65;4.15;;;;;;;15.71;100.00;96437.94;4999265;28;20625;-69
2023/07/30 03:43:43;;;;;;;8.43;4.00;;;;;;;15.68;100.00;96436.75;5003778;28;20044;-70
2023/07/30 03:46:09;;;;;;;7.15;3.63;;;;;;;15.58;100.00;96443.16;4999764;28;20046;-70
2023/07/30 03:48:34;;;;;;;6.53;4.05;;;;;;;15.45;100.00;96440.09;5008789;28;20045;-69
2023/07/30 03:50:59;;;;;;;7.68;4.22;;;;;;;15.36;100.00;96440.56;5006331;28;20073;-69
2023/07/30 03:53:25;;;;;;;5.75;4.13;;;;;;;15.39;100.00;96438.94;4998174;28;20100;-69
2023/07/30 03:55:50;;;;;;;8.63;4.03;;;;;;;15.47;100.00;96440.47;5001483;28;20092;-69
2023/07/30 03:58:16;;;;;;;5.93;4.20;;;;;;;15.51;100.00;96432.94;4997453;28;20042;-69
2023/07/30 04:00:41;;;;;;;6.05;4.28;;;;;;;15.41;100.00;96437.38;5003402;28;20042;-70
2023/07/30 04:03:07;;;;;;;9.25;4.40;;;;;;;15.26;100.00;96441.41;4998496;28;20038;-69
2023/07/30 04:05:32;;;;;;;9.38;4.53;;;;;;;15.16;100.00;96437.53;5003067;28;20046;-70
2023/07/30 04:07:58;;;;;;;7.68;4.90;;;;;;;15.02;100.00;96437.59;5002338;28;20364;-71
2023/07/30 04:10:23;;;;;;;9.85;4.97;;;;;;;14.96;100.00;96442.72;4998824;28;20796;-70
2023/07/30 04:12:49;;;;;;;7.03;5.05;;;;;;;14.93;100.00;96438.03;5003156;28;20033;-70
2023/07/30 04:15:16;;;;;;;7.85;4.70;;;;;;;14.91;100.00;96448.69;4998966;28;20565;-70
2023/07/30 04:17:42;;;;;;;9.80;4.45;;;;;;;15.07;100.00;96449.00;5002893;28;20041;-71
2023/07/30 04:20:09;;;;;;;11.35;4.63;;;;;;;15.17;100.00;96439.06;4997885;28;20045;-69
2023/07/30 04:22:37;;;;;;;6.10;4.45;;;;;;;15.16;100.00;96448.56;5001855;28;20034;-70
2023/07/30 04:25:03;;;;;;;6.78;4.78;;;;;;;15.21;100.00;96450.09;5014091;28;20050;-69
2023/07/30 04:27:28;;;;;;;7.00;4.75;;;;;;;15.26;100.00;96455.19;5017120;28;20133;-71
2023/07/30 04:29:54;;;;;;;6.60;4.15;;;;;;;15.36;100.00;96457.09;5010926;28;20042;-69
2023/07/30 04:32:19;;;;;;;6.88;4.88;;;;;;;15.41;100.00;96458.63;4999197;28;20125;-70
2023/07/30 04:34:45;;;;;;;7.25;4.72;;;;;;;15.39;100.00;96463.78;5001478;28;20034;-69
2023/07/30 04:37:10;;;;;;;6.53;4.18;;;;;;;15.48;100.00;96458.59;4997759;28;20037;-69
2023/07/30 04:39:36;;;;;;;13.95;5.00;;;;;;;15.62;100.00;96458.50;5002384;28;20092;-70
2023/07/30 04:42:02;;;;;;;5.88;4.40;;;;;;;15.56;100.00;96470.38;5002881;28;20042;-71
2023/07/30 04:44:28;;;;;;;7.22;4.22;;;;;;;15.74;100.00;96478.53;4998101;28;20042;-70
2023/07/30 04:46:53;;;;;;;10.80;4.18;;;;;;;15.89;100.00;96476.47;5002530;28;20161;-69
2023/07/30 04:49:18;;;;;;;5.65;4.10;;;;;;;15.99;100.00;96472.81;4997491;28;20038;-70
2023/07/30 04:51:45;;;;;;;6.53;3.80;;;;;;;16.07;100.00;96479.09;5002907;28;20111;-69
2023/07/30 04:54:11;;;;;;;9.20;3.63;;;;;;;16.25;100.00;96471.41;4998609;28;20051;-71
2023/07/30 04:56:37;;;;;;;5.60;3.50;;;;;;;16.44;100.00;96481.09;5003172;28;20038;-72
2023/07/30 04:59:03;;;;;;;7.22;4.40;;;;;;;16.54;100.00;96479.41;5000886;28;20040;-69
2023/07/30 05:01:29;;;;;;;6.60;3.85;;;;;;;16.79;100.00;96479.91;5000906;28;20046;-70
2023/07/30 05:03:54;;;;;;;4.93;3.10;;;;;;;16.94;100.00;96486.09;5001179;28;20136;-70
2023/07/30 05:06:19;;;;;;;5.65;3.88;;;;;;;17.10;100.00;96485.50;4997986;28;20045;-71
2023/07/30 05:08:45;;;;;;;4.43;3.10;;;;;;;16.99;100.00;96488.38;5001712;28;20044;-69
2023/07/30 05:11:10;;;;;;;5.85;3.13;;;;;;;18.14;100.00;96492.28;4994857;28;20119;-69
2023/07/30 05:13:35;;;;;;;8.35;3.72;;;;;;;18.62;100.00;96495.81;5001359;28;20042;-70
2023/07/30 05:16:01;;;;;;;7.78;3.22;;;;;;;19.23;100.00;96496.63;5002158;28;20068;-70
2023/07/30 05:18:27;;;;;;;5.70;2.95;;;;;;;20.09;100.00;96496.72;4994733;28;20048;-69
2023/07/30 05:20:52;;;;;;;4.22;2.50;;;;;;;21.72;100.00;96508.59;5000393;28;20034;-69
2023/07/30 05:23:18;;;;;;;4.40;2.47;;;;;;;23.02;100.00;96500.28;4996841;28;20566;-69
2023/07/30 05:25:43;;;;;;;4.07;2.22;;;;;;;23.31;99.51;96520.84;5001169;28;20081;-69
2023/07/30 05:28:08;;;;;;;6.25;2.20;;;;;;;25.02;90.71;96523.56;4996587;28;20040;-70
2023/07/30 05:30:34;;;;;;;4.55;2.25;;;;;;;25.28;81.63;96526.06;4999587;28;20054;-70
2023/07/30 05:32:59;;;;;;;6.63;1.95;;;;;;;25.42;80.72;96519.81;5000868;28;20072;-69
2023/07/30 05:35:25;;;;;;;4.85;2.20;;;;;;;26.63;72.45;96528.53;4996831;28;20045;-69
2023/07/30 05:37:50;;;;;;;4.47;1.85;;;;;;;26.68;72.54;96528.66;5000408;28;20640;-71
2023/07/30 05:40:16;;;;;;;3.60;2.10;;;;;;;27.61;68.41;96533.50;4995258;28;20128;-71
2023/07/30 05:42:41;;;;;;;3.97;2.22;;;;;;;28.38;61.95;96540.88;4999753;28;20057;-71
2023/07/30 05:45:07;;;;;;;2.65;1.73;;;;;;;30.15;55.15;96539.50;4990893;28;20044;-71
2023/07/30 05:47:33;;;;;;;4.50;2.33;;;;;;;31.24;50.05;96548.06;5001858;28;20046;-71
2023/07/30 05:49:58;;;;;;;3.50;1.58;;;;;;;31.36;49.35;96546.06;5006376;28;20034;-71
2023/07/30 05:52:24;;;;;;;3.97;1.80;;;;;;;29.48;53.30;96536.88;4996554;28;20064;-71
2023/07/30 05:54:49;;;;;;;3.75;2.00;;;;;;;28.60;57.93;96534.81;5001370;28;20089;-70
2023/07/30 05:57:14;;;;;;;3.92;2.20;;;;;;;27.77;57.70;96541.44;4996122;28;20045;-69
2023/07/30 05:59:40;;;;;;;5.32;3.72;;;;;;;24.96;74.72;96540.22;5000280;28;20517;-68
2023/07/30 06:02:05;;;;;;;6.50;3.92;;;;;;;22.66;92.42;96535.03;4993482;28;20045;-69
2023/07/30 06:04:31;;;;;;;6.15;2.97;;;;;;;21.63;100.00;96523.19;5001446;28;20042;-70
2023/07/30 06:06:59;;;;;;;3.70;2.75;;;;;;;22.27;100.00;96531.56;5004060;28;20667;-70
2023/07/30 06:09:24;;;;;;;4.38;2.35;;;;;;;24.41;88.27;96543.69;4998983;28;20637;-69
2023/07/30 06:11:50;;;;;;;3.40;2.20;;;;;;;24.72;82.25;96540.06;5002497;28;20598;-70
2023/07/30 06:14:15;;;;;;;3.78;2.13;;;;;;;24.16;84.21;96541.16;4996115;28;20096;-68
2023/07/30 06:16:40;;;;;;;3.85;2.10;;;;;;;23.48;85.61;96550.91;5001612;28;20136;-69
2023/07/30 06:19:06;;;;;;;7.88;2.30;;;;;;;22.99;91.44;96545.09;4997500;28;20048;-68
2023/07/30 06:21:31;;;;;;;6.18;2.40;;;;;;;22.60;95.07;96544.41;5000737;28;20511;-69
2023/07/30 06:23:56;;;;;;;6.75;2.60;;;;;;;22.50;97.35;96543.56;4998992;28;20053;-70
2023/07/30 06:26:22;;;;;;;4.10;2.30;;;;;;;22.38;100.00;96550.72;4995628;28;20042;-71
2023/07/30 06:28:47;;;;;;;7.20;2.50;;;;;;;22.07;100.00;96550.50;5001070;28;20084;-70
2023/07/30 06:31:13;;;;;;;4.85;2.97;;;;;;;21.66;100.00;96552.16;4996885;28;20042;-70
2023/07/30 06:33:38;;;;;;;4.97;2.28;;;;;;;21.60;100.00;96548.38;5000361;28;20553;-70
2023/07/30 06:36:04;;;;;;;4.38;2.78;;;;;;;21.50;100.00;96555.81;4997507;28;20488;-69
2023/07/30 06:38:29;;;;;;;4.47;2.50;;;;;;;21.45;100.00;96556.34;4999450;28;20124;-69
2023/07/30 06:40:57;;;;;;;4.40;2.55;;;;;;;21.15;100.00;96561.94;5001015;28;20049;-70
2023/07/30 06:43:23;;;;;;;4.38;2.30;;;;;;;21.30;100.00;96556.75;4996177;28;20886;-71
2023/07/30 06:45:48;;;;;;;4.40;2.38;;;;;;;22.73;99.00;96559.16;5014601;28;20069;-71
2023/07/30 06:48:15;;;;;;;4.32;2.65;;;;;;;23.78;93.95;96558.97;5014653;28;20042;-71
2023/07/30 06:50:41;;;;;;;4.55;2.25;;;;;;;24.34;85.07;96562.81;5011266;28;20042;-70
2023/07/30 06:53:06;;;;;;;3.08;2.28;;;;;;;24.68;81.59;96561.81;4994272;28;20075;-70
2023/07/30 06:55:31;;;;;;;3.88;2.13;;;;;;;25.40;76.21;96564.34;5007713;28;20367;-69
2023/07/30 06:57:57;;;;;;;5.00;2.45;;;;;;;24.15;81.53;96561.97;5006774;28;20045;-71
2023/07/30 07:00:22;;;;;;;3.72;2.20;;;;;;;25.11;74.83;96564.81;5001588;28;20744;-71
2023/07/30 07:02:48;;;;;;;3.70;2.13;;;;;;;23.91;79.81;96564.50;5004351;28;20554;-71
2023/07/30 07:05:14;;;;;;;5.13;2.30;;;;;;;24.33;78.65;96569.66;5000247;28;20038;-69
2023/07/30 07:07:40;;;;;;;4.47;2.20;;;;;;;24.08;80.00;96565.84;5007341;28;20096;-71
2023/07/30 07:10:06;;;;;;;5.00;2.10;;;;;;;25.25;76.15;96577.47;4999813;28;20042;-71
2023/07/30 07:12:31;;;;;;;3.95;2.08;;;;;;;25.55;73.29;96576.50;5002578;28;20124;-72
2023/07/30 07:14:58;;;;;;;5.13;1.83;;;;;;;26.09;69.16;96584.47;5004685;28;20042;-71
2023/07/30 07:17:24;;;;;;;23.67;16.05;;;;;;;27.00;65.67;96579.63;5000549;28;20049;-70
2023/07/30 07:19:50;;;;;;;4.68;3.00;;;;;;;27.35;61.92;96579.06;5003683;28;20042;-70
2023/07/30 07:22:17;;;;;;;4.65;1.83;;;;;;;27.25;61.46;96572.72;4999549;28;20034;-73
2023/07/30 07:24:42;;;;;;;2.55;1.58;;;;;;;28.00;58.69;96579.22;5005703;28;20046;-71
2023/07/30 07:27:08;;;;;;;3.30;1.98;;;;;;;27.91;58.32;96582.13;4992710;28;20729;-71
2023/07/30 07:29:33;;;;;;;4.10;1.75;;;;;;;28.16;57.14;96580.75;5002924;28;20663;-70
2023/07/30 07:31:59;;;;;;;5.05;2.10;;;;;;;28.18;57.01;96585.88;5005029;28;20048;-70
2023/07/30 07:34:24;;;;;;;3.13;1.50;;;;;;;27.90;56.49;96583.38;5000353;28;20100;-70
2023/07/30 07:36:49;;;;;;;3.50;1.70;;;;;;;27.01;60.56;96580.41;5003471;28;20104;-72
2023/07/30 07:39:15;;;;;;;2.45;1.52;;;;;;;27.61;58.34;96590.53;4999802;28;20044;-71
2023/07/30 07:41:40;;;;;;;2.65;1.70;;;;;;;27.36;59.31;96594.66;5003240;28;20422;-71
2023/07/30 07:44:05;;;;;;;2.63;1.70;;;;;;;26.30;62.05;96577.06;4998434;28;20049;-71
2023/07/30 07:46:31;;;;;;;3.38;1.90;;;;;;;26.42;61.89;96580.91;5003718;28;20049;-71
2023/07/30 07:48:56;;;;;;;2.70;1.55;;;;;;;26.85;61.50;96592.88;5003385;28;20506;-71
2023/07/30 07:51:21;;;;;;;2.65;1.48;;;;;;;26.54;59.66;96599.53;4999212;28;20049;-72
2023/07/30 07:53:47;;;;;;;3.53;1.52;;;;;;;25.41;65.52;96585.56;4985767;28;20046;-71
2023/07/30 07:56:12;;;;;;;3.00;1.63;;;;;;;24.31;72.21;96586.13;5010915;28;20475;-71
2023/07/30 07:58:38;;;;;;;2.28;1.40;;;;;;;24.30;72.01;96585.34;5007246;28;20057;-72
2023/07/30 08:01:03;;;;;;;3.83;1.95;;;;;;;24.36;72.12;96579.91;5022069;28;20576;-72
2023/07/30 08:03:29;;;;;;;4.57;1.98;;;;;;;25.70;67.08;96575.84;5023828;28;20045;-71
2023/07/30 08:05:54;;;;;;;4.03;1.77;;;;;;;26.12;64.61;96583.53;5025213;28;20073;-71
2023/07/30 08:08:20;;;;;;;2.95;1.60;;;;;;;26.88;62.08;96592.69;5021610;28;20470;-70
2023/07/30 08:10:47;;;;;;;6.68;1.75;;;;;;;27.56;58.07;96590.44;5026280;28;20064;-72
2023/07/30 08:13:13;;;;;;;2.78;1.67;;;;;;;26.82;59.07;96586.16;5021026;28;20091;-72
2023/07/30 08:15:39;;;;;;;3.92;2.33;;;;;;;25.50;61.90;96588.34;5025284;28;20037;-72
2023/07/30 08:18:04;;;;;;;3.92;1.83;;;;;;;24.48;68.14;96589.44;5017735;28;20044;-71
2023/07/30 08:20:30;;;;;;;4.43;1.63;;;;;;;24.71;68.58;96588.91;5023991;28;20582;-71
2023/07/30 08:22:55;;;;;;;3.03;1.75;;;;;;;24.94;67.63;96581.16;5003215;28;20044;-72
2023/07/30 08:25:21;;;;;;;3.42;1.35;;;;;;;24.59;66.39;96584.22;5000699;28;20300;-71
2023/07/30 08:27:46;;;;;;;2.40;1.50;;;;;;;26.04;62.20;96587.94;5006195;28;20042;-70
2023/07/30 08:30:12;;;;;;;2.65;1.50;;;;;;;26.42;60.22;96594.94;5005681;28;20105;-71
2023/07/30 08:32:38;;;;;;;5.68;1.70;;;;;;;26.32;59.61;96600.59;5005897;28;20538;-71
2023/07/30 08:35:04;;;;;;;2.22;1.35;;;;;;;26.10;58.99;96594.44;5002757;28;20041;-72
2023/07/30 08:37:30;;;;;;;2.55;1.38;;;;;;;25.79;58.96;96580.66;5004783;28;20041;-70
2023/07/30 08:39:55;;;;;;;2.88;1.50;;;;;;;25.27;60.92;96591.78;5002527;28;20046;-70
2023/07/30 08:42:21;;;;;;;3.65;1.10;;;;;;;25.46;60.52;96595.34;4998433;28;20605;-70
2023/07/30 08:44:46;;;;;;;3.35;1.58;;;;;;;24.72;64.31;96598.06;5003111;28;20048;-71
2023/07/30 08:47:11;;;;;;;4.20;1.30;;;;;;;25.01;62.01;96586.44;5000988;28;20049;-73
2023/07/30 08:49:37;;;;;;;2.83;1.15;;;;;;;24.01;63.75;96600.47;5003842;28;20049;-71
2023/07/30 08:52:03;;;;;;;5.13;1.30;;;;;;;23.27;67.43;96599.19;5005868;28;20136;-74
2023/07/30 08:54:30;;;;;;;2.72;1.05;;;;;;;23.14;67.38;96604.03;5004223;28;20049;-72
2023/07/30 08:56:57;;;;;;;2.78;1.15;;;;;;;23.14;68.80;96598.44;5003334;28;20041;-70
2023/07/30 08:59:24;;;;;;;2.83;1.25;;;;;;;23.04;69.08;96592.78;5009925;28;20664;-70
2023/07/30 09:01:52;;;;;;;1.67;1.00;;;;;;;23.09;69.46;96592.22;5029498;28;20091;-72
2023/07/30 09:04:18;;;;;;;4.53;1.67;;;;;;;23.45;67.27;96579.75;5026389;28;20140;-74
2023/07/30 09:06:47;;;;;;;1.85;0.88;;;;;;;23.92;65.16;96585.66;5016838;28;20090;-72
2023/07/30 09:09:13;;;;;;;2.20;1.10;;;;;;;23.89;66.08;96586.56;5013718;28;20034;-70
2023/07/30 09:11:39;;;;;;;2.15;1.10;;;;;;;24.61;63.41;96570.53;5009854;28;20041;-70
2023/07/30 09:14:05;;;;;;;2.47;1.00;;;;;;;25.16;59.11;96570.56;4997890;28;20045;-66
2023/07/30 09:16:31;;;;;;;1.77;0.75;;;;;;;25.69;57.50;96568.66;5004784;28;20145;-70
2023/07/30 09:18:57;;;;;;;1.63;1.00;;;;;;;25.84;57.62;96589.22;5001285;28;20504;-72
2023/07/30 09:21:33;;;;;;;2.88;0.88;;;;;;;25.56;56.08;96580.06;4997269;28;20057;-70
2023/07/30 09:24:05;;;;;;;1.27;0.80;;;;;;;26.08;55.12;96596.97;5010103;28;20045;-70
2023/07/30 09:26:40;;;;;;;3.83;1.00;;;;;;;26.10;54.22;96600.06;4999544;28;20619;-71
2023/07/30 09:29:08;;;;;;;3.78;0.88;;;;;;;26.44;52.34;96609.28;4995938;28;20137;-70
2023/07/30 09:31:51;;;;;;;3.20;0.80;;;;;;;25.69;54.25;96599.50;5003043;28;20064;-72
2023/07/30 09:34:21;;;;;;;3.72;0.90;;;;;;;26.01;54.69;96608.53;4997166;28;20130;-72
2023/07/30 09:36:47;;;;;;;1.70;0.98;;;;;;;26.09;54.98;96604.09;5001618;28;20433;-72
2023/07/30 09:39:21;;;;;;;1.85;1.02;;;;;;;25.56;54.52;96608.88;4996712;28;20051;-72
2023/07/30 09:41:46;;;;;;;1.77;1.00;;;;;;;25.31;55.07;96603.63;5014759;28;20046;-71
2023/07/30 09:44:13;;;;;;;1.85;0.80;;;;;;;24.96;56.34;96606.69;4995828;28;20096;-72
2023/07/30 09:46:46;;;;;;;1.65;0.85;;;;;;;24.85;57.05;96607.16;4999581;28;20060;-71
2023/07/30 09:49:12;;;;;;;1.65;0.90;;;;;;;24.51;58.78;96605.31;4996591;28;20137;-71
2023/07/30 09:51:39;;;;;;;1.90;1.20;;;;;;;25.01;56.48;96606.06;5000955;28;20621;-72
2023/07/30 09:54:11;;;;;;;2.30;0.95;;;;;;;24.96;56.71;96601.09;4996826;28;20038;-69
2023/07/30 09:56:37;;;;;;;1.73;1.02;;;;;;;25.54;56.54;96597.34;4999210;28;20042;-70
2023/07/30 09:59:04;;;;;;;26.42;19.55;;;;;;;25.94;54.51;96601.97;4997943;28;20061;-70
2023/07/30 10:01:31;;;;;;;2.22;1.10;;;;;;;25.75;56.05;96603.25;4999438;28;20073;-69
2023/07/30 10:03:57;;;;;;;3.08;1.13;;;;;;;26.12;54.20;96597.56;4999131;28;20046;-68
2023/07/30 10:06:29;;;;;;;1.80;1.13;;;;;;;25.55;55.37;96595.31;4995473;28;20564;-70
2023/07/30 10:08:58;;;;;;;2.53;1.30;;;;;;;24.60;56.63;96606.16;5000752;28;20038;-70
2023/07/30 10:11:24;;;;;;;1.60;1.00;;;;;;;24.56;57.02;96599.94;4996269;28;20072;-70
2023/07/30 10:13:50;;;;;;;3.17;1.23;;;;;;;24.05;59.69;96598.28;5000344;28;20046;-70
2023/07/30 10:16:15;;;;;;;2.47;1.30;;;;;;;23.72;62.64;96603.53;4995304;28;20206;-69
2023/07/30 10:18:43;;;;;;;2.05;1.15;;;;;;;23.54;62.01;96595.03;4999785;28;20169;-70
2023/07/30 10:21:10;;;;;;;1.73;1.20;;;;;;;23.46;63.87;96602.88;4995604;28;20034;-69
2023/07/30 10:23:45;;;;;;;2.17;0.90;;;;;;;23.46;63.31;96592.50;4999809;28;20487;-69
2023/07/30 10:26:10;;;;;;;2.10;1.40;;;;;;;24.05;60.09;96595.50;4995494;28;20493;-70
2023/07/30 10:28:38;;;;;;;4.00;1.42;;;;;;;24.50;58.87;96600.97;4993520;28;20129;-69
2023/07/30 10:31:10;;;;;;;2.70;1.45;;;;;;;24.75;58.93;96600.72;4994445;28;20045;-69
2023/07/30 10:33:47;;;;;;;2.80;1.38;;;;;;;25.10;56.43;96597.69;5004890;28;20038;-69
2023/07/30 10:36:13;;;;;;;4.85;1.25;;;;;;;24.95;57.97;96596.72;5002491;28;20038;-70
2023/07/30 10:38:39;;;;;;;5.28;1.15;;;;;;;25.67;56.72;96599.97;5005158;28;20387;-70
2023/07/30 10:41:05;;;;;;;1.95;1.00;;;;;;;26.07;54.55;96596.19;5001105;28;20057;-68
2023/07/30 10:43:35;;;;;;;1.98;1.10;;;;;;;25.74;53.94;96605.28;5002647;28;20050;-69
2023/07/30 10:46:01;;;;;;;2.40;1.33;;;;;;;25.82;53.44;96608.53;5004469;28;20080;-71
2023/07/30 10:48:36;;;;;;;2.50;1.30;;;;;;;25.72;53.19;96604.97;5000372;28;20046;-71
2023/07/30 10:51:04;;;;;;;2.13;1.25;;;;;;;25.84;53.30;96613.66;5002912;28;20046;-70
2023/07/30 10:53:30;;;;;;;3.22;1.38;;;;;;;26.16;52.96;96612.19;5004002;28;20706;-70
2023/07/30 10:56:00;;;;;;;4.05;1.33;;;;;;;26.47;52.82;96611.13;5003260;28;20042;-71
2023/07/30 10:58:26;;;;;;;2.90;1.30;;;;;;;26.31;51.13;96609.50;4997353;28;20042;-71
2023/07/30 11:00:52;;;;;;;2.58;1.42;;;;;;;26.20;50.64;96618.44;5004336;28;20401;-70
2023/07/30 11:03:18;;;;;;;2.55;1.30;;;;;;;25.84;51.83;96610.84;5003291;28;20035;-71
2023/07/30 11:05:47;;;;;;;3.47;1.30;;;;;;;25.72;51.92;96613.38;5011027;28;20065;-70
2023/07/30 11:08:13;;;;;;;;;;;;;;;26.00;52.64;96612.56;5002279;28;20042;-70
2023/07/30 11:10:45;;;;;;;3.20;1.27;;;;;;;25.88;52.35;96626.28;5025331;28;19936;-71
2023/07/30 11:13:12;;;;;;;3.80;1.15;;;;;;;25.55;53.39;96612.16;5003370;28;20189;-71
2023/07/30 11:15:42;;;;;;;2.22;1.33;;;;;;;25.42;53.03;96619.97;5006835;28;20034;-70
2023/07/30 11:18:08;;;;;;;2.78;1.35;;;;;;;25.34;54.29;96619.50;4985379;28;20077;-71
2023/07/30 11:20:33;;;;;;;3.47;1.50;;;;;;;25.73;52.27;96617.75;5002729;28;20065;-70
2023/07/30 11:22:59;;;;;;;1.90;1.02;;;;;;;25.44;52.00;96617.47;5004276;28;20041;-71